CMA CGM Thalassa — 5BNE2 — position and weather

sailwx.info

Track history (hours):
 
Tides and Currents Weather Stations Pressure Air Temp Water Temp Dewpoint Dewpoint Depression Visibility Wind Speed Wind Dir Waves Ship Positions

CMA CGM Thalassa

Last reported at 2017-Feb-10 10:22 UTC. Time now 2017-Feb-20 18:22 UTC.
Position N 37°04' W 124°19'.
Warning: this ship's position is 10 days out of date.

Length 347 m; draft 12.7 m.

Type: Ship (hazmat cat A). MMSI: 212151000.

Date/timePositionNaut miles runAvg speedWind from/ knotsBaromVisibWave heightAir tempDewpointWater temp
2017-Feb-10 10:22N 37°04' W 124°19'1412.4
2017-Feb-10 09:16N 37°10' W 124°03'3712.1
2017-Feb-10 06:15N 37°27' W 123°22'811.6
2017-Feb-10 05:32N 37°31' W 123°13'1111.5
2017-Feb-10 04:33N 37°36' W 123°01'1111.4
2017-Feb-10 03:34N 37°42' W 122°49'10 9.6
2017-Feb-10 02:33N 37°46' W 122°38'1111.4
2017-Feb-10 01:33N 37°49' W 122°24'5 5.2
2017-Feb-10 00:33N 37°48' W 122°17'2 1.7
2017-Feb-09 23:33N 37°48' W 122°20'0 0.1
2017-Feb-09 22:32N 37°48' W 122°19'0 0.0
2017-Feb-09 21:32N 37°48' W 122°19'0 0.0
2017-Feb-09 20:32N 37°48' W 122°19'0 0.0
2017-Feb-09 19:31N 37°48' W 122°19'0 0.0
2017-Feb-09 18:33N 37°48' W 122°19'0 0.0
2017-Feb-09 17:33N 37°48' W 122°19'0 0.0
2017-Feb-09 16:33N 37°48' W 122°19'0 0.0
2017-Feb-09 15:32N 37°48' W 122°19'0 0.0
2017-Feb-09 14:32N 37°48' W 122°19'0 0.0
2017-Feb-09 13:31N 37°48' W 122°19'0 0.0
2017-Feb-09 12:31N 37°48' W 122°19'0 0.0
2017-Feb-09 11:31N 37°48' W 122°19'0 0.0
2017-Feb-09 10:33N 37°48' W 122°19'0 0.0
2017-Feb-09 09:33N 37°48' W 122°19'0 0.0
2017-Feb-09 08:32N 37°48' W 122°19'0 0.0
2017-Feb-09 07:32N 37°48' W 122°19'0 0.0
2017-Feb-09 06:31N 37°48' W 122°19'0 0.0
2017-Feb-09 05:31N 37°48' W 122°19'0 0.0
2017-Feb-09 04:33N 37°48' W 122°19'0 0.0
2017-Feb-09 03:33N 37°48' W 122°19'0 0.0
2017-Feb-09 02:33N 37°48' W 122°19'0 0.0
2017-Feb-09 01:32N 37°48' W 122°19'0 0.0
2017-Feb-09 00:32N 37°48' W 122°19'0 0.0
2017-Feb-08 23:31N 37°48' W 122°19'0 0.0
2017-Feb-08 22:31N 37°48' W 122°19'0 0.0
2017-Feb-08 21:33N 37°48' W 122°19'0 0.0
2017-Feb-08 20:33N 37°48' W 122°19'0 0.0
2017-Feb-08 19:33N 37°48' W 122°19'0 0.0
2017-Feb-08 18:32N 37°48' W 122°19'0 0.0
2017-Feb-08 17:32N 37°48' W 122°19'0 0.0
2017-Feb-08 16:31N 37°48' W 122°19'0 0.0
2017-Feb-08 15:31N 37°48' W 122°19'0 0.0
2017-Feb-08 14:33N 37°48' W 122°19'0 0.0
2017-Feb-08 13:33N 37°48' W 122°19'0 0.1
2017-Feb-08 12:33N 37°48' W 122°20'9 9.5
2017-Feb-08 11:34N 37°48' W 122°32'9 9.4
2017-Feb-08 10:33N 37°41' W 122°40'1111.3
2017-Feb-08 09:33N 37°30' W 122°40'1211.6
2017-Feb-08 08:33N 37°18' W 122°40'1312.4
2017-Feb-08 07:32N 37°06' W 122°37'1110.7
2017-Feb-08 06:33N 36°56' W 122°32'1212.4
2017-Feb-08 05:33N 36°45' W 122°26'1212.1
2017-Feb-08 04:33N 36°33' W 122°21'1211.9
2017-Feb-08 03:33N 36°22' W 122°15'1211.8
2017-Feb-08 02:33N 36°11' W 122°10'1211.8
2017-Feb-08 01:33N 36°00' W 122°05'1211.6
2017-Feb-08 00:33N 35°50' W 121°59'1211.9
2017-Feb-07 23:33N 35°39' W 121°53'1212.0
2017-Feb-07 22:32N 35°28' W 121°45'  
Track history (hours):
 
Tides and Currents Weather Stations Pressure Air Temp Water Temp Dewpoint Dewpoint Depression Visibility Wind Speed Wind Dir Waves Ship Positions

CMA CGM Thalassa

Last reported at 2017-Feb-10 10:22 UTC. Time now 2017-Feb-20 18:22 UTC.
Position N 37°04' W 124°19'.
Warning: this ship's position is 10 days out of date.

Length 347 m; draft 12.7 m.

Type: Ship (hazmat cat A). MMSI: 212151000.

Date/timePositionNaut miles runAvg speedWind from/ knotsBaromVisibWave heightAir tempDewpointWater temp
2017-Feb-10 10:22N 37°04' W 124°19'1412.4
2017-Feb-10 09:16N 37°10' W 124°03'3712.1
2017-Feb-10 06:15N 37°27' W 123°22'811.6
2017-Feb-10 05:32N 37°31' W 123°13'1111.5
2017-Feb-10 04:33N 37°36' W 123°01'1111.4
2017-Feb-10 03:34N 37°42' W 122°49'10 9.6
2017-Feb-10 02:33N 37°46' W 122°38'1111.4
2017-Feb-10 01:33N 37°49' W 122°24'5 5.2
2017-Feb-10 00:33N 37°48' W 122°17'2 1.7
2017-Feb-09 23:33N 37°48' W 122°20'0 0.1
2017-Feb-09 22:32N 37°48' W 122°19'0 0.0
2017-Feb-09 21:32N 37°48' W 122°19'0 0.0
2017-Feb-09 20:32N 37°48' W 122°19'0 0.0
2017-Feb-09 19:31N 37°48' W 122°19'0 0.0
2017-Feb-09 18:33N 37°48' W 122°19'0 0.0
2017-Feb-09 17:33N 37°48' W 122°19'0 0.0
2017-Feb-09 16:33N 37°48' W 122°19'0 0.0
2017-Feb-09 15:32N 37°48' W 122°19'0 0.0
2017-Feb-09 14:32N 37°48' W 122°19'0 0.0
2017-Feb-09 13:31N 37°48' W 122°19'0 0.0
2017-Feb-09 12:31N 37°48' W 122°19'0 0.0
2017-Feb-09 11:31N 37°48' W 122°19'0 0.0
2017-Feb-09 10:33N 37°48' W 122°19'0 0.0
2017-Feb-09 09:33N 37°48' W 122°19'0 0.0
2017-Feb-09 08:32N 37°48' W 122°19'0 0.0
2017-Feb-09 07:32N 37°48' W 122°19'0 0.0
2017-Feb-09 06:31N 37°48' W 122°19'0 0.0
2017-Feb-09 05:31N 37°48' W 122°19'0 0.0
2017-Feb-09 04:33N 37°48' W 122°19'0 0.0
2017-Feb-09 03:33N 37°48' W 122°19'0 0.0
2017-Feb-09 02:33N 37°48' W 122°19'0 0.0
2017-Feb-09 01:32N 37°48' W 122°19'0 0.0
2017-Feb-09 00:32N 37°48' W 122°19'0 0.0
2017-Feb-08 23:31N 37°48' W 122°19'0 0.0
2017-Feb-08 22:31N 37°48' W 122°19'0 0.0
2017-Feb-08 21:33N 37°48' W 122°19'0 0.0
2017-Feb-08 20:33N 37°48' W 122°19'0 0.0
2017-Feb-08 19:33N 37°48' W 122°19'0 0.0
2017-Feb-08 18:32N 37°48' W 122°19'0 0.0
2017-Feb-08 17:32N 37°48' W 122°19'0 0.0
2017-Feb-08 16:31N 37°48' W 122°19'0 0.0
2017-Feb-08 15:31N 37°48' W 122°19'0 0.0
2017-Feb-08 14:33N 37°48' W 122°19'0 0.0
2017-Feb-08 13:33N 37°48' W 122°19'0 0.1
2017-Feb-08 12:33N 37°48' W 122°20'9 9.5
2017-Feb-08 11:34N 37°48' W 122°32'9 9.4
2017-Feb-08 10:33N 37°41' W 122°40'1111.3
2017-Feb-08 09:33N 37°30' W 122°40'1211.6
2017-Feb-08 08:33N 37°18' W 122°40'1312.4
2017-Feb-08 07:32N 37°06' W 122°37'1110.7
2017-Feb-08 06:33N 36°56' W 122°32'1212.4
2017-Feb-08 05:33N 36°45' W 122°26'1212.1
2017-Feb-08 04:33N 36°33' W 122°21'1211.9
2017-Feb-08 03:33N 36°22' W 122°15'1211.8
2017-Feb-08 02:33N 36°11' W 122°10'1211.8
2017-Feb-08 01:33N 36°00' W 122°05'1211.6
2017-Feb-08 00:33N 35°50' W 121°59'1211.9
2017-Feb-07 23:33N 35°39' W 121°53'1212.0
2017-Feb-07 22:32N 35°28' W 121°45'  

Dump ship's entire track history